sensor_id;sensor_type;location;lat;lon;timestamp;P1;durP1;ratioP1;P2;durP2;ratioP2
15061;SDS011;7630;50.306;8.566;2023-12-20T00:03:15;0.83;;;0.83;;
15061;SDS011;7630;50.306;8.566;2023-12-20T00:07:17;0.83;;;0.83;;
15061;SDS011;7630;50.306;8.566;2023-12-20T00:11:18;1.20;;;1.17;;
15061;SDS011;7630;50.306;8.566;2023-12-20T00:15:20;1.20;;;0.90;;
15061;SDS011;7630;50.306;8.566;2023-12-20T00:19:21;1.07;;;1.07;;
15061;SDS011;7630;50.306;8.566;2023-12-20T00:23:22;1.20;;;1.10;;
15061;SDS011;7630;50.306;8.566;2023-12-20T00:27:24;1.10;;;1.10;;
15061;SDS011;7630;50.306;8.566;2023-12-20T00:31:25;1.47;;;1.23;;
15061;SDS011;7630;50.306;8.566;2023-12-20T00:35:26;2.77;;;1.37;;
15061;SDS011;7630;50.306;8.566;2023-12-20T00:39:27;1.17;;;1.13;;
15061;SDS011;7630;50.306;8.566;2023-12-20T00:43:29;1.23;;;1.23;;
15061;SDS011;7630;50.306;8.566;2023-12-20T00:47:30;1.33;;;1.23;;
15061;SDS011;7630;50.306;8.566;2023-12-20T00:51:32;1.00;;;1.00;;
15061;SDS011;7630;50.306;8.566;2023-12-20T00:55:33;1.13;;;1.10;;
15061;SDS011;7630;50.306;8.566;2023-12-20T00:59:34;1.20;;;1.10;;
15061;SDS011;7630;50.306;8.566;2023-12-20T01:03:36;1.07;;;1.07;;
15061;SDS011;7630;50.306;8.566;2023-12-20T01:07:37;0.90;;;0.90;;
15061;SDS011;7630;50.306;8.566;2023-12-20T01:11:38;1.17;;;1.17;;
15061;SDS011;7630;50.306;8.566;2023-12-20T01:15:39;1.20;;;1.20;;
15061;SDS011;7630;50.306;8.566;2023-12-20T01:19:40;1.73;;;1.20;;
15061;SDS011;7630;50.306;8.566;2023-12-20T01:23:41;1.20;;;1.13;;
15061;SDS011;7630;50.306;8.566;2023-12-20T01:27:43;1.40;;;1.40;;
15061;SDS011;7630;50.306;8.566;2023-12-20T01:31:44;1.10;;;1.00;;
15061;SDS011;7630;50.306;8.566;2023-12-20T01:35:45;1.03;;;1.03;;
15061;SDS011;7630;50.306;8.566;2023-12-20T01:39:46;1.33;;;1.23;;
15061;SDS011;7630;50.306;8.566;2023-12-20T01:43:47;1.47;;;1.37;;
15061;SDS011;7630;50.306;8.566;2023-12-20T01:47:50;1.57;;;1.47;;
15061;SDS011;7630;50.306;8.566;2023-12-20T01:51:52;2.00;;;1.90;;
15061;SDS011;7630;50.306;8.566;2023-12-20T01:55:54;2.30;;;2.10;;
15061;SDS011;7630;50.306;8.566;2023-12-20T01:59:57;1.80;;;1.70;;
15061;SDS011;7630;50.306;8.566;2023-12-20T02:03:59;3.60;;;2.40;;
15061;SDS011;7630;50.306;8.566;2023-12-20T02:08:01;1.73;;;1.63;;
15061;SDS011;7630;50.306;8.566;2023-12-20T02:12:03;1.90;;;1.80;;
15061;SDS011;7630;50.306;8.566;2023-12-20T02:16:04;1.20;;;1.20;;
15061;SDS011;7630;50.306;8.566;2023-12-20T02:20:08;1.93;;;1.83;;
15061;SDS011;7630;50.306;8.566;2023-12-20T02:24:10;2.80;;;2.10;;
15061;SDS011;7630;50.306;8.566;2023-12-20T02:28:11;1.40;;;1.30;;
15061;SDS011;7630;50.306;8.566;2023-12-20T02:32:12;2.00;;;1.90;;
15061;SDS011;7630;50.306;8.566;2023-12-20T02:36:14;1.70;;;1.60;;
15061;SDS011;7630;50.306;8.566;2023-12-20T02:40:15;2.07;;;1.97;;
15061;SDS011;7630;50.306;8.566;2023-12-20T02:44:16;1.77;;;1.67;;
15061;SDS011;7630;50.306;8.566;2023-12-20T02:48:17;1.60;;;1.50;;
15061;SDS011;7630;50.306;8.566;2023-12-20T02:52:19;1.83;;;1.73;;
15061;SDS011;7630;50.306;8.566;2023-12-20T02:56:20;2.13;;;2.00;;
15061;SDS011;7630;50.306;8.566;2023-12-20T03:00:21;1.73;;;1.63;;
15061;SDS011;7630;50.306;8.566;2023-12-20T03:04:22;2.27;;;2.17;;
15061;SDS011;7630;50.306;8.566;2023-12-20T03:08:23;2.63;;;2.47;;
15061;SDS011;7630;50.306;8.566;2023-12-20T03:12:24;1.77;;;1.67;;
15061;SDS011;7630;50.306;8.566;2023-12-20T03:16:25;2.30;;;2.13;;
15061;SDS011;7630;50.306;8.566;2023-12-20T03:20:27;2.17;;;2.07;;
15061;SDS011;7630;50.306;8.566;2023-12-20T03:24:28;2.97;;;2.87;;
15061;SDS011;7630;50.306;8.566;2023-12-20T03:28:29;3.13;;;2.93;;
15061;SDS011;7630;50.306;8.566;2023-12-20T03:32:30;2.83;;;2.63;;
15061;SDS011;7630;50.306;8.566;2023-12-20T03:36:31;3.80;;;3.50;;
15061;SDS011;7630;50.306;8.566;2023-12-20T03:40:32;4.17;;;3.77;;
15061;SDS011;7630;50.306;8.566;2023-12-20T03:44:33;3.93;;;3.63;;
15061;SDS011;7630;50.306;8.566;2023-12-20T03:48:34;3.60;;;3.33;;
15061;SDS011;7630;50.306;8.566;2023-12-20T03:52:36;5.23;;;4.83;;
15061;SDS011;7630;50.306;8.566;2023-12-20T03:56:37;4.63;;;4.23;;
15061;SDS011;7630;50.306;8.566;2023-12-20T04:00:38;5.93;;;5.53;;
15061;SDS011;7630;50.306;8.566;2023-12-20T04:04:39;8.27;;;5.40;;
15061;SDS011;7630;50.306;8.566;2023-12-20T04:08:41;7.37;;;5.43;;
15061;SDS011;7630;50.306;8.566;2023-12-20T04:12:42;7.43;;;6.83;;
15061;SDS011;7630;50.306;8.566;2023-12-20T04:16:43;7.27;;;6.60;;
15061;SDS011;7630;50.306;8.566;2023-12-20T04:20:46;9.13;;;8.33;;
15061;SDS011;7630;50.306;8.566;2023-12-20T04:24:47;9.57;;;8.63;;
15061;SDS011;7630;50.306;8.566;2023-12-20T04:28:48;9.63;;;8.73;;
15061;SDS011;7630;50.306;8.566;2023-12-20T04:32:51;12.67;;;8.60;;
15061;SDS011;7630;50.306;8.566;2023-12-20T04:36:53;8.70;;;7.83;;
15061;SDS011;7630;50.306;8.566;2023-12-20T04:40:54;8.27;;;7.47;;
15061;SDS011;7630;50.306;8.566;2023-12-20T04:44:55;11.17;;;9.00;;
15061;SDS011;7630;50.306;8.566;2023-12-20T04:48:56;13.30;;;8.90;;
15061;SDS011;7630;50.306;8.566;2023-12-20T04:52:58;13.90;;;8.47;;
15061;SDS011;7630;50.306;8.566;2023-12-20T04:56:59;9.37;;;6.80;;
15061;SDS011;7630;50.306;8.566;2023-12-20T05:01:00;8.57;;;6.30;;
15061;SDS011;7630;50.306;8.566;2023-12-20T05:05:01;9.13;;;6.40;;
15061;SDS011;7630;50.306;8.566;2023-12-20T05:09:03;8.87;;;6.70;;
15061;SDS011;7630;50.306;8.566;2023-12-20T05:13:04;7.17;;;5.70;;
15061;SDS011;7630;50.306;8.566;2023-12-20T05:17:05;10.07;;;6.83;;
15061;SDS011;7630;50.306;8.566;2023-12-20T05:21:06;6.10;;;5.50;;
15061;SDS011;7630;50.306;8.566;2023-12-20T05:25:07;11.73;;;5.40;;
15061;SDS011;7630;50.306;8.566;2023-12-20T05:29:09;13.37;;;4.80;;
15061;SDS011;7630;50.306;8.566;2023-12-20T05:33:10;9.33;;;4.63;;
15061;SDS011;7630;50.306;8.566;2023-12-20T05:37:11;8.10;;;4.63;;
15061;SDS011;7630;50.306;8.566;2023-12-20T05:41:12;13.47;;;4.93;;
15061;SDS011;7630;50.306;8.566;2023-12-20T05:45:14;11.10;;;4.83;;
15061;SDS011;7630;50.306;8.566;2023-12-20T05:49:15;10.43;;;4.73;;
15061;SDS011;7630;50.306;8.566;2023-12-20T05:53:17;5.80;;;4.07;;
15061;SDS011;7630;50.306;8.566;2023-12-20T05:57:18;4.87;;;4.23;;
15061;SDS011;7630;50.306;8.566;2023-12-20T06:01:19;15.70;;;4.27;;
15061;SDS011;7630;50.306;8.566;2023-12-20T06:05:20;8.03;;;4.27;;
15061;SDS011;7630;50.306;8.566;2023-12-20T06:09:21;19.00;;;4.67;;
15061;SDS011;7630;50.306;8.566;2023-12-20T06:13:22;12.00;;;5.20;;
15061;SDS011;7630;50.306;8.566;2023-12-20T06:17:24;9.30;;;4.03;;
15061;SDS011;7630;50.306;8.566;2023-12-20T06:21:25;9.87;;;4.77;;
15061;SDS011;7630;50.306;8.566;2023-12-20T06:25:26;13.30;;;5.67;;
15061;SDS011;7630;50.306;8.566;2023-12-20T06:29:28;8.73;;;4.93;;
15061;SDS011;7630;50.306;8.566;2023-12-20T06:33:29;14.13;;;5.23;;
15061;SDS011;7630;50.306;8.566;2023-12-20T06:37:31;7.63;;;3.83;;
15061;SDS011;7630;50.306;8.566;2023-12-20T06:41:32;7.17;;;3.77;;
15061;SDS011;7630;50.306;8.566;2023-12-20T06:45:34;9.70;;;3.83;;
15061;SDS011;7630;50.306;8.566;2023-12-20T06:49:35;9.77;;;4.03;;
15061;SDS011;7630;50.306;8.566;2023-12-20T06:53:36;13.27;;;5.83;;
15061;SDS011;7630;50.306;8.566;2023-12-20T06:57:37;6.50;;;3.83;;
15061;SDS011;7630;50.306;8.566;2023-12-20T07:01:38;12.57;;;4.77;;
15061;SDS011;7630;50.306;8.566;2023-12-20T07:05:40;7.13;;;4.37;;
15061;SDS011;7630;50.306;8.566;2023-12-20T07:09:41;8.77;;;4.17;;
15061;SDS011;7630;50.306;8.566;2023-12-20T07:13:43;11.57;;;4.90;;
15061;SDS011;7630;50.306;8.566;2023-12-20T07:17:44;8.37;;;3.63;;
15061;SDS011;7630;50.306;8.566;2023-12-20T07:21:46;12.10;;;4.40;;
15061;SDS011;7630;50.306;8.566;2023-12-20T07:25:47;6.73;;;4.27;;
15061;SDS011;7630;50.306;8.566;2023-12-20T07:29:48;14.47;;;4.17;;
15061;SDS011;7630;50.306;8.566;2023-12-20T07:33:50;11.90;;;4.47;;
15061;SDS011;7630;50.306;8.566;2023-12-20T07:37:51;6.53;;;4.70;;
15061;SDS011;7630;50.306;8.566;2023-12-20T07:41:52;10.83;;;6.93;;
15061;SDS011;7630;50.306;8.566;2023-12-20T07:45:53;7.90;;;4.67;;
15061;SDS011;7630;50.306;8.566;2023-12-20T07:49:55;5.67;;;5.07;;
15061;SDS011;7630;50.306;8.566;2023-12-20T07:53:56;6.70;;;5.03;;
15061;SDS011;7630;50.306;8.566;2023-12-20T07:57:57;15.73;;;6.37;;
15061;SDS011;7630;50.306;8.566;2023-12-20T08:01:59;10.20;;;4.83;;
15061;SDS011;7630;50.306;8.566;2023-12-20T08:10:03;5.57;;;4.60;;
15061;SDS011;7630;50.306;8.566;2023-12-20T08:14:05;11.17;;;4.23;;
15061;SDS011;7630;50.306;8.566;2023-12-20T08:18:06;6.53;;;4.23;;
15061;SDS011;7630;50.306;8.566;2023-12-20T08:22:07;11.60;;;4.73;;
15061;SDS011;7630;50.306;8.566;2023-12-20T08:26:08;10.43;;;4.70;;
15061;SDS011;7630;50.306;8.566;2023-12-20T08:30:10;10.07;;;4.63;;
15061;SDS011;7630;50.306;8.566;2023-12-20T08:34:11;14.53;;;5.70;;
15061;SDS011;7630;50.306;8.566;2023-12-20T08:38:15;8.80;;;5.07;;
15061;SDS011;7630;50.306;8.566;2023-12-20T08:42:17;13.97;;;6.83;;
15061;SDS011;7630;50.306;8.566;2023-12-20T08:46:18;13.63;;;5.03;;
15061;SDS011;7630;50.306;8.566;2023-12-20T08:50:20;16.10;;;4.70;;
15061;SDS011;7630;50.306;8.566;2023-12-20T08:54:21;13.50;;;5.50;;
15061;SDS011;7630;50.306;8.566;2023-12-20T08:58:22;10.60;;;4.00;;
15061;SDS011;7630;50.306;8.566;2023-12-20T09:02:23;9.17;;;3.60;;
15061;SDS011;7630;50.306;8.566;2023-12-20T09:06:24;12.43;;;5.10;;
15061;SDS011;7630;50.306;8.566;2023-12-20T09:10:25;10.07;;;4.93;;
15061;SDS011;7630;50.306;8.566;2023-12-20T09:14:27;10.97;;;3.93;;
15061;SDS011;7630;50.306;8.566;2023-12-20T09:18:28;11.53;;;4.23;;
15061;SDS011;7630;50.306;8.566;2023-12-20T09:22:29;13.30;;;3.97;;
15061;SDS011;7630;50.306;8.566;2023-12-20T09:26:30;13.40;;;5.13;;
15061;SDS011;7630;50.306;8.566;2023-12-20T09:30:31;9.17;;;3.77;;
15061;SDS011;7630;50.306;8.566;2023-12-20T09:34:33;13.93;;;4.53;;
15061;SDS011;7630;50.306;8.566;2023-12-20T09:38:34;9.33;;;4.03;;
15061;SDS011;7630;50.306;8.566;2023-12-20T09:42:38;6.83;;;4.13;;
15061;SDS011;7630;50.306;8.566;2023-12-20T09:46:42;9.83;;;3.80;;
15061;SDS011;7630;50.306;8.566;2023-12-20T09:50:44;12.50;;;4.17;;
15061;SDS011;7630;50.306;8.566;2023-12-20T09:54:48;9.40;;;4.87;;
15061;SDS011;7630;50.306;8.566;2023-12-20T09:58:51;11.93;;;4.30;;
15061;SDS011;7630;50.306;8.566;2023-12-20T10:02:58;8.47;;;3.57;;
15061;SDS011;7630;50.306;8.566;2023-12-20T10:07:03;8.20;;;4.20;;
15061;SDS011;7630;50.306;8.566;2023-12-20T10:11:07;12.20;;;4.03;;
15061;SDS011;7630;50.306;8.566;2023-12-20T10:15:08;10.23;;;4.03;;
15061;SDS011;7630;50.306;8.566;2023-12-20T10:19:11;7.43;;;4.03;;
15061;SDS011;7630;50.306;8.566;2023-12-20T10:23:12;10.33;;;4.57;;
15061;SDS011;7630;50.306;8.566;2023-12-20T10:27:15;8.33;;;4.20;;
15061;SDS011;7630;50.306;8.566;2023-12-20T10:31:34;11.50;;;4.17;;
15061;SDS011;7630;50.306;8.566;2023-12-20T10:35:34;9.33;;;4.17;;
15061;SDS011;7630;50.306;8.566;2023-12-20T10:39:36;14.47;;;4.63;;
15061;SDS011;7630;50.306;8.566;2023-12-20T10:43:38;10.73;;;4.33;;
15061;SDS011;7630;50.306;8.566;2023-12-20T10:47:40;9.43;;;4.03;;
15061;SDS011;7630;50.306;8.566;2023-12-20T10:51:44;7.17;;;4.10;;
15061;SDS011;7630;50.306;8.566;2023-12-20T10:55:47;6.30;;;3.87;;
15061;SDS011;7630;50.306;8.566;2023-12-20T10:59:52;10.10;;;3.70;;
15061;SDS011;7630;50.306;8.566;2023-12-20T11:03:55;4.93;;;3.17;;
15061;SDS011;7630;50.306;8.566;2023-12-20T11:08:10;6.37;;;3.73;;
15061;SDS011;7630;50.306;8.566;2023-12-20T11:12:21;6.47;;;3.37;;
15061;SDS011;7630;50.306;8.566;2023-12-20T11:16:27;8.87;;;3.63;;
15061;SDS011;7630;50.306;8.566;2023-12-20T11:20:41;4.63;;;2.60;;
15061;SDS011;7630;50.306;8.566;2023-12-20T11:24:43;9.53;;;3.80;;
15061;SDS011;7630;50.306;8.566;2023-12-20T11:28:45;8.10;;;4.27;;
15061;SDS011;7630;50.306;8.566;2023-12-20T11:32:46;6.00;;;2.93;;
15061;SDS011;7630;50.306;8.566;2023-12-20T11:36:48;8.73;;;3.77;;
15061;SDS011;7630;50.306;8.566;2023-12-20T11:40:51;10.27;;;3.70;;
15061;SDS011;7630;50.306;8.566;2023-12-20T11:44:55;16.30;;;4.17;;
15061;SDS011;7630;50.306;8.566;2023-12-20T11:48:57;9.67;;;5.43;;
15061;SDS011;7630;50.306;8.566;2023-12-20T11:52:58;10.70;;;3.50;;
15061;SDS011;7630;50.306;8.566;2023-12-20T11:56:59;7.80;;;4.07;;
15061;SDS011;7630;50.306;8.566;2023-12-20T12:01:01;12.37;;;3.33;;
15061;SDS011;7630;50.306;8.566;2023-12-20T12:05:03;8.90;;;3.97;;
15061;SDS011;7630;50.306;8.566;2023-12-20T12:09:25;5.97;;;3.57;;
15061;SDS011;7630;50.306;8.566;2023-12-20T12:13:26;10.03;;;4.60;;
15061;SDS011;7630;50.306;8.566;2023-12-20T12:17:28;9.60;;;3.73;;
15061;SDS011;7630;50.306;8.566;2023-12-20T12:21:29;4.70;;;3.37;;
15061;SDS011;7630;50.306;8.566;2023-12-20T12:25:34;7.77;;;3.10;;
15061;SDS011;7630;50.306;8.566;2023-12-20T12:29:38;5.50;;;4.10;;
15061;SDS011;7630;50.306;8.566;2023-12-20T12:33:40;7.27;;;3.33;;
15061;SDS011;7630;50.306;8.566;2023-12-20T12:37:42;5.60;;;3.17;;
15061;SDS011;7630;50.306;8.566;2023-12-20T12:41:44;8.07;;;3.17;;
15061;SDS011;7630;50.306;8.566;2023-12-20T12:45:45;6.13;;;3.37;;
15061;SDS011;7630;50.306;8.566;2023-12-20T12:49:46;7.60;;;5.27;;
15061;SDS011;7630;50.306;8.566;2023-12-20T12:53:47;10.67;;;4.23;;
15061;SDS011;7630;50.306;8.566;2023-12-20T12:57:49;8.23;;;3.27;;
15061;SDS011;7630;50.306;8.566;2023-12-20T13:01:50;5.37;;;3.00;;
15061;SDS011;7630;50.306;8.566;2023-12-20T13:05:52;8.10;;;3.83;;
15061;SDS011;7630;50.306;8.566;2023-12-20T13:09:53;7.00;;;3.43;;
15061;SDS011;7630;50.306;8.566;2023-12-20T13:13:54;3.73;;;3.43;;
15061;SDS011;7630;50.306;8.566;2023-12-20T13:17:55;8.77;;;3.83;;
15061;SDS011;7630;50.306;8.566;2023-12-20T13:21:56;7.10;;;3.63;;
15061;SDS011;7630;50.306;8.566;2023-12-20T13:25:58;10.10;;;4.90;;
15061;SDS011;7630;50.306;8.566;2023-12-20T13:30:00;5.43;;;4.03;;
15061;SDS011;7630;50.306;8.566;2023-12-20T13:34:01;6.40;;;4.10;;
15061;SDS011;7630;50.306;8.566;2023-12-20T13:38:03;22.80;;;7.60;;
15061;SDS011;7630;50.306;8.566;2023-12-20T13:42:04;7.67;;;4.17;;
15061;SDS011;7630;50.306;8.566;2023-12-20T13:46:05;11.40;;;4.67;;
15061;SDS011;7630;50.306;8.566;2023-12-20T13:50:07;6.90;;;4.40;;
15061;SDS011;7630;50.306;8.566;2023-12-20T13:54:08;9.43;;;4.80;;
15061;SDS011;7630;50.306;8.566;2023-12-20T13:58:11;5.87;;;4.43;;
15061;SDS011;7630;50.306;8.566;2023-12-20T14:02:13;8.53;;;5.07;;
15061;SDS011;7630;50.306;8.566;2023-12-20T14:06:14;8.67;;;4.07;;
15061;SDS011;7630;50.306;8.566;2023-12-20T14:10:16;12.13;;;5.80;;
15061;SDS011;7630;50.306;8.566;2023-12-20T14:14:17;10.13;;;3.60;;
15061;SDS011;7630;50.306;8.566;2023-12-20T14:18:19;5.83;;;4.53;;
15061;SDS011;7630;50.306;8.566;2023-12-20T14:22:20;8.90;;;4.30;;
15061;SDS011;7630;50.306;8.566;2023-12-20T14:26:21;9.77;;;4.57;;
15061;SDS011;7630;50.306;8.566;2023-12-20T14:30:23;8.17;;;3.83;;
15061;SDS011;7630;50.306;8.566;2023-12-20T14:34:24;6.93;;;4.97;;
15061;SDS011;7630;50.306;8.566;2023-12-20T14:38:25;7.47;;;4.87;;
15061;SDS011;7630;50.306;8.566;2023-12-20T14:42:27;11.20;;;3.60;;
15061;SDS011;7630;50.306;8.566;2023-12-20T14:46:28;10.37;;;3.67;;
15061;SDS011;7630;50.306;8.566;2023-12-20T14:50:29;6.90;;;3.53;;
15061;SDS011;7630;50.306;8.566;2023-12-20T14:54:30;8.77;;;3.37;;
15061;SDS011;7630;50.306;8.566;2023-12-20T14:58:31;6.43;;;4.03;;
15061;SDS011;7630;50.306;8.566;2023-12-20T15:02:33;5.30;;;3.03;;
15061;SDS011;7630;50.306;8.566;2023-12-20T15:06:35;7.60;;;3.33;;
15061;SDS011;7630;50.306;8.566;2023-12-20T15:10:36;6.97;;;3.87;;
15061;SDS011;7630;50.306;8.566;2023-12-20T15:14:38;5.13;;;2.90;;
15061;SDS011;7630;50.306;8.566;2023-12-20T15:18:39;7.33;;;2.83;;
15061;SDS011;7630;50.306;8.566;2023-12-20T15:22:40;6.73;;;2.73;;
15061;SDS011;7630;50.306;8.566;2023-12-20T15:26:42;9.90;;;2.70;;
15061;SDS011;7630;50.306;8.566;2023-12-20T15:30:44;8.13;;;3.60;;
15061;SDS011;7630;50.306;8.566;2023-12-20T15:34:45;7.37;;;2.30;;
15061;SDS011;7630;50.306;8.566;2023-12-20T15:38:47;10.63;;;2.53;;
15061;SDS011;7630;50.306;8.566;2023-12-20T15:42:48;4.50;;;3.07;;
15061;SDS011;7630;50.306;8.566;2023-12-20T15:46:50;9.63;;;3.87;;
15061;SDS011;7630;50.306;8.566;2023-12-20T15:50:52;4.10;;;2.40;;
15061;SDS011;7630;50.306;8.566;2023-12-20T15:54:53;4.50;;;2.37;;
15061;SDS011;7630;50.306;8.566;2023-12-20T15:58:54;3.97;;;2.63;;
15061;SDS011;7630;50.306;8.566;2023-12-20T16:02:57;8.53;;;2.63;;
15061;SDS011;7630;50.306;8.566;2023-12-20T16:07:00;6.30;;;3.07;;
15061;SDS011;7630;50.306;8.566;2023-12-20T16:11:01;3.03;;;2.53;;
15061;SDS011;7630;50.306;8.566;2023-12-20T16:15:03;6.93;;;2.73;;
15061;SDS011;7630;50.306;8.566;2023-12-20T16:19:05;5.70;;;3.03;;
15061;SDS011;7630;50.306;8.566;2023-12-20T16:23:06;9.20;;;3.40;;
15061;SDS011;7630;50.306;8.566;2023-12-20T16:27:07;5.30;;;3.17;;
15061;SDS011;7630;50.306;8.566;2023-12-20T16:31:08;8.00;;;2.70;;
15061;SDS011;7630;50.306;8.566;2023-12-20T16:35:10;12.77;;;3.93;;
15061;SDS011;7630;50.306;8.566;2023-12-20T16:39:11;11.53;;;3.07;;
15061;SDS011;7630;50.306;8.566;2023-12-20T16:43:12;8.63;;;3.40;;
15061;SDS011;7630;50.306;8.566;2023-12-20T16:47:14;7.10;;;3.23;;
15061;SDS011;7630;50.306;8.566;2023-12-20T16:51:15;10.30;;;3.30;;
15061;SDS011;7630;50.306;8.566;2023-12-20T16:55:16;5.57;;;3.30;;
15061;SDS011;7630;50.306;8.566;2023-12-20T16:59:18;5.73;;;3.20;;
15061;SDS011;7630;50.306;8.566;2023-12-20T17:03:19;3.90;;;2.70;;
15061;SDS011;7630;50.306;8.566;2023-12-20T17:07:21;5.27;;;3.10;;
15061;SDS011;7630;50.306;8.566;2023-12-20T17:11:22;6.37;;;3.93;;
15061;SDS011;7630;50.306;8.566;2023-12-20T17:15:23;4.87;;;2.47;;
15061;SDS011;7630;50.306;8.566;2023-12-20T17:19:24;4.77;;;4.10;;
15061;SDS011;7630;50.306;8.566;2023-12-20T17:23:26;9.63;;;3.60;;
15061;SDS011;7630;50.306;8.566;2023-12-20T17:27:27;8.57;;;4.10;;
15061;SDS011;7630;50.306;8.566;2023-12-20T17:31:28;4.90;;;2.63;;
15061;SDS011;7630;50.306;8.566;2023-12-20T17:35:30;3.77;;;2.50;;
15061;SDS011;7630;50.306;8.566;2023-12-20T17:39:31;8.83;;;3.30;;
15061;SDS011;7630;50.306;8.566;2023-12-20T17:43:32;3.57;;;3.20;;
15061;SDS011;7630;50.306;8.566;2023-12-20T17:47:34;7.40;;;3.70;;
15061;SDS011;7630;50.306;8.566;2023-12-20T17:51:35;5.37;;;2.90;;
15061;SDS011;7630;50.306;8.566;2023-12-20T17:55:36;4.43;;;2.83;;
15061;SDS011;7630;50.306;8.566;2023-12-20T17:59:38;6.67;;;2.87;;
15061;SDS011;7630;50.306;8.566;2023-12-20T18:03:41;6.47;;;3.30;;
15061;SDS011;7630;50.306;8.566;2023-12-20T18:07:43;6.93;;;3.90;;
15061;SDS011;7630;50.306;8.566;2023-12-20T18:11:46;5.93;;;2.83;;
15061;SDS011;7630;50.306;8.566;2023-12-20T18:15:47;3.87;;;2.60;;
15061;SDS011;7630;50.306;8.566;2023-12-20T18:19:48;6.50;;;3.43;;
15061;SDS011;7630;50.306;8.566;2023-12-20T18:23:50;4.80;;;2.93;;
15061;SDS011;7630;50.306;8.566;2023-12-20T18:27:53;4.37;;;2.63;;
15061;SDS011;7630;50.306;8.566;2023-12-20T18:31:54;3.50;;;2.27;;
15061;SDS011;7630;50.306;8.566;2023-12-20T18:35:55;5.53;;;2.90;;
15061;SDS011;7630;50.306;8.566;2023-12-20T18:39:56;4.17;;;2.70;;
15061;SDS011;7630;50.306;8.566;2023-12-20T18:43:58;2.60;;;2.40;;
15061;SDS011;7630;50.306;8.566;2023-12-20T18:47:59;5.07;;;3.20;;
15061;SDS011;7630;50.306;8.566;2023-12-20T18:52:00;12.23;;;4.33;;
15061;SDS011;7630;50.306;8.566;2023-12-20T18:56:04;4.20;;;3.20;;
15061;SDS011;7630;50.306;8.566;2023-12-20T19:00:05;5.80;;;2.63;;
15061;SDS011;7630;50.306;8.566;2023-12-20T19:04:09;3.97;;;3.20;;
15061;SDS011;7630;50.306;8.566;2023-12-20T19:08:10;3.30;;;2.97;;
15061;SDS011;7630;50.306;8.566;2023-12-20T19:12:11;5.43;;;3.50;;
15061;SDS011;7630;50.306;8.566;2023-12-20T19:16:12;3.70;;;3.10;;
15061;SDS011;7630;50.306;8.566;2023-12-20T19:20:14;8.47;;;3.80;;
15061;SDS011;7630;50.306;8.566;2023-12-20T19:24:15;6.43;;;3.30;;
15061;SDS011;7630;50.306;8.566;2023-12-20T19:28:16;4.47;;;2.73;;
15061;SDS011;7630;50.306;8.566;2023-12-20T19:32:18;6.83;;;5.53;;
15061;SDS011;7630;50.306;8.566;2023-12-20T19:36:19;9.37;;;3.00;;
15061;SDS011;7630;50.306;8.566;2023-12-20T19:40:20;5.50;;;3.07;;
15061;SDS011;7630;50.306;8.566;2023-12-20T19:44:22;7.53;;;3.20;;
15061;SDS011;7630;50.306;8.566;2023-12-20T19:48:23;4.80;;;2.50;;
15061;SDS011;7630;50.306;8.566;2023-12-20T19:52:24;3.70;;;2.40;;
15061;SDS011;7630;50.306;8.566;2023-12-20T19:56:25;3.50;;;3.20;;
15061;SDS011;7630;50.306;8.566;2023-12-20T20:00:26;3.60;;;2.97;;
15061;SDS011;7630;50.306;8.566;2023-12-20T20:04:30;4.07;;;2.93;;
15061;SDS011;7630;50.306;8.566;2023-12-20T20:08:31;4.30;;;2.73;;
15061;SDS011;7630;50.306;8.566;2023-12-20T20:12:33;6.80;;;3.80;;
15061;SDS011;7630;50.306;8.566;2023-12-20T20:16:34;3.53;;;2.30;;
15061;SDS011;7630;50.306;8.566;2023-12-20T20:20:36;2.63;;;1.77;;
15061;SDS011;7630;50.306;8.566;2023-12-20T20:24:37;2.80;;;2.60;;
15061;SDS011;7630;50.306;8.566;2023-12-20T20:28:38;3.60;;;2.57;;
15061;SDS011;7630;50.306;8.566;2023-12-20T20:32:39;5.13;;;2.80;;
15061;SDS011;7630;50.306;8.566;2023-12-20T20:36:40;3.37;;;2.40;;
15061;SDS011;7630;50.306;8.566;2023-12-20T20:40:41;4.93;;;2.80;;
15061;SDS011;7630;50.306;8.566;2023-12-20T20:44:43;5.80;;;2.57;;
15061;SDS011;7630;50.306;8.566;2023-12-20T20:48:44;2.90;;;2.60;;
15061;SDS011;7630;50.306;8.566;2023-12-20T20:52:47;4.10;;;3.00;;
15061;SDS011;7630;50.306;8.566;2023-12-20T20:56:49;5.27;;;2.77;;
15061;SDS011;7630;50.306;8.566;2023-12-20T21:00:50;8.60;;;4.53;;
15061;SDS011;7630;50.306;8.566;2023-12-20T21:04:51;3.03;;;2.80;;
15061;SDS011;7630;50.306;8.566;2023-12-20T21:08:52;4.50;;;2.67;;
15061;SDS011;7630;50.306;8.566;2023-12-20T21:12:54;5.53;;;3.00;;
15061;SDS011;7630;50.306;8.566;2023-12-20T21:16:55;4.03;;;2.47;;
15061;SDS011;7630;50.306;8.566;2023-12-20T21:20:56;4.33;;;2.90;;
15061;SDS011;7630;50.306;8.566;2023-12-20T21:24:58;3.10;;;2.80;;
15061;SDS011;7630;50.306;8.566;2023-12-20T21:28:59;2.93;;;2.33;;
15061;SDS011;7630;50.306;8.566;2023-12-20T21:33:00;3.50;;;2.67;;
15061;SDS011;7630;50.306;8.566;2023-12-20T21:37:01;5.17;;;2.60;;
15061;SDS011;7630;50.306;8.566;2023-12-20T21:41:03;6.23;;;3.07;;
15061;SDS011;7630;50.306;8.566;2023-12-20T21:45:05;4.03;;;3.07;;
15061;SDS011;7630;50.306;8.566;2023-12-20T21:49:06;3.57;;;3.27;;
15061;SDS011;7630;50.306;8.566;2023-12-20T21:53:08;3.37;;;2.40;;
15061;SDS011;7630;50.306;8.566;2023-12-20T21:57:11;6.53;;;2.33;;
15061;SDS011;7630;50.306;8.566;2023-12-20T22:01:12;3.13;;;2.40;;
15061;SDS011;7630;50.306;8.566;2023-12-20T22:05:13;2.57;;;2.37;;
15061;SDS011;7630;50.306;8.566;2023-12-20T22:09:14;4.70;;;3.17;;
15061;SDS011;7630;50.306;8.566;2023-12-20T22:13:15;4.83;;;3.93;;
15061;SDS011;7630;50.306;8.566;2023-12-20T22:17:16;5.03;;;3.70;;
15061;SDS011;7630;50.306;8.566;2023-12-20T22:21:18;5.63;;;3.27;;
15061;SDS011;7630;50.306;8.566;2023-12-20T22:25:19;4.77;;;2.63;;
15061;SDS011;7630;50.306;8.566;2023-12-20T22:29:20;4.20;;;2.70;;
15061;SDS011;7630;50.306;8.566;2023-12-20T22:33:23;5.37;;;3.10;;
15061;SDS011;7630;50.306;8.566;2023-12-20T22:37:26;2.90;;;2.67;;
15061;SDS011;7630;50.306;8.566;2023-12-20T22:41:27;3.00;;;2.77;;
15061;SDS011;7630;50.306;8.566;2023-12-20T22:45:28;4.57;;;2.67;;
15061;SDS011;7630;50.306;8.566;2023-12-20T22:49:29;2.97;;;2.77;;
15061;SDS011;7630;50.306;8.566;2023-12-20T22:53:30;3.83;;;2.60;;
15061;SDS011;7630;50.306;8.566;2023-12-20T22:57:31;3.03;;;2.83;;
15061;SDS011;7630;50.306;8.566;2023-12-20T23:01:33;5.10;;;2.90;;
15061;SDS011;7630;50.306;8.566;2023-12-20T23:05:34;2.87;;;2.67;;
15061;SDS011;7630;50.306;8.566;2023-12-20T23:09:35;3.60;;;2.63;;
15061;SDS011;7630;50.306;8.566;2023-12-20T23:13:38;4.90;;;3.03;;
15061;SDS011;7630;50.306;8.566;2023-12-20T23:17:39;4.83;;;2.90;;
15061;SDS011;7630;50.306;8.566;2023-12-20T23:21:40;5.07;;;3.27;;
15061;SDS011;7630;50.306;8.566;2023-12-20T23:25:41;4.30;;;2.90;;
15061;SDS011;7630;50.306;8.566;2023-12-20T23:29:42;3.57;;;2.87;;
15061;SDS011;7630;50.306;8.566;2023-12-20T23:33:43;2.47;;;2.27;;
15061;SDS011;7630;50.306;8.566;2023-12-20T23:37:46;3.00;;;2.80;;
15061;SDS011;7630;50.306;8.566;2023-12-20T23:41:49;4.13;;;3.60;;
15061;SDS011;7630;50.306;8.566;2023-12-20T23:45:50;2.53;;;2.33;;
15061;SDS011;7630;50.306;8.566;2023-12-20T23:49:51;2.57;;;2.40;;
15061;SDS011;7630;50.306;8.566;2023-12-20T23:53:52;2.60;;;2.40;;
15061;SDS011;7630;50.306;8.566;2023-12-20T23:57:53;3.70;;;2.30;;
